Time;durP1;ratioP1;P1;durP2;ratioP2;P2;SDS_P1;SDS_P2;PMS_P1;PMS_P2;Temp;Humidity;BMP_temperature;BMP_pressure;BME280_temperature;BME280_humidity;BME280_pressure;Samples;Min_cycle;Max_cycle;Signal;HPM_P1;HPM_P2
2023/02/20 00:04:05;;;;;;;0.00;0.00;;;;;;;7.36;87.88;101502.16;6136411;23;20052;-74
2023/02/20 00:07:19;;;;;;;0.10;0.10;;;;;;;7.36;88.37;101491.28;6048376;23;20066;-73
2023/02/20 00:10:41;;;;;;;;;;;;;;;;;;;;;
2023/02/20 00:13:57;;;;;;;0.00;0.00;;;;;;;7.38;88.72;101483.72;6017720;23;20591;-75
2023/02/20 00:17:27;;;;;;;0.00;0.00;;;;;;;7.38;88.42;101474.72;6028724;23;20059;-76
2023/02/20 00:23:38;;;;;;;0.00;0.00;;;;;;;7.18;89.13;101455.78;5962944;23;20023;-75
2023/02/20 00:26:08;;;;;;;0.00;0.00;;;;;;;7.23;88.56;101464.97;6017556;23;20008;-74
2023/02/20 00:29:27;;;;;;;0.00;0.00;;;;;;;7.22;88.82;101470.63;5991800;23;20071;-73
2023/02/20 00:31:57;;;;;;;0.00;0.00;;;;;;;7.09;88.75;101439.72;6090049;23;20307;-78
2023/02/20 00:34:26;;;;;;;0.00;0.00;;;;;;;7.12;88.39;101449.31;6200891;23;20076;-80
2023/02/20 00:36:52;;;;;;;0.00;0.00;;;;;;;7.08;88.92;101446.22;6202105;23;20039;-77
2023/02/20 00:39:20;;;;;;;0.00;0.00;;;;;;;7.19;88.62;101457.47;6175211;23;20004;-78
2023/02/20 00:41:56;;;;;;;;;;;;;;;;;;;;;
2023/02/20 00:44:22;;;;;;;0.00;0.00;;;;;;;6.98;88.29;101424.94;6226040;23;20420;-77
2023/02/20 00:47:01;;;;;;;0.00;0.00;;;;;;;7.15;88.95;101452.47;6198197;23;20024;-77
2023/02/20 00:49:32;;;;;;;0.00;0.00;;;;;;;7.05;88.71;101435.75;6199821;23;20419;-79
2023/02/20 00:52:07;;;;;;;0.00;0.00;;;;;;;6.98;89.08;101430.38;6207081;23;20000;-79
2023/02/20 00:54:32;;;;;;;0.00;0.00;;;;;;;7.06;89.06;101434.72;6200236;23;20063;-74
2023/02/20 00:57:08;;;;;;;;;;;;;;;;;;;;;
2023/02/20 00:59:33;;;;;;;0.00;0.00;;;;;;;7.00;89.26;101432.88;6197742;23;20039;-78
2023/02/20 01:01:59;;;;;;;0.00;0.00;;;;;;;6.94;88.85;101428.31;6196420;23;20013;-77
2023/02/20 01:04:25;;;;;;;0.00;0.00;;;;;;;6.84;89.29;101417.06;6223974;23;20027;-78
2023/02/20 01:06:50;;;;;;;0.00;0.00;;;;;;;6.78;90.24;101425.03;6199181;23;20084;-77
2023/02/20 01:09:16;;;;;;;0.10;0.10;;;;;;;6.87;90.10;101427.50;6171337;23;19996;-77
2023/02/20 01:11:43;;;;;;;0.10;0.10;;;;;;;6.85;90.68;101421.44;6195560;23;20086;-77
2023/02/20 01:14:09;;;;;;;0.00;0.00;;;;;;;6.92;90.19;101422.22;6195210;23;20062;-77
2023/02/20 01:16:34;;;;;;;0.10;0.10;;;;;;;6.94;90.63;101423.69;6195133;23;20036;-78
2023/02/20 01:19:00;;;;;;;0.00;0.00;;;;;;;6.96;90.07;101415.31;6220947;23;20012;-78
2023/02/20 01:21:25;;;;;;;0.00;0.00;;;;;;;7.00;89.89;101424.72;6218924;23;20015;-75
2023/02/20 01:23:51;;;;;;;0.00;0.00;;;;;;;7.02;89.76;101414.44;6195075;23;20027;-77
2023/02/20 01:26:17;;;;;;;0.00;0.00;;;;;;;7.02;89.37;101416.31;6197937;23;20004;-77
2023/02/20 01:28:44;;;;;;;0.00;0.00;;;;;;;7.02;89.86;101413.59;6208130;23;20076;-77
2023/02/20 01:31:09;;;;;;;0.00;0.00;;;;;;;7.04;89.59;101411.50;6204613;23;20023;-78
2023/02/20 01:33:35;;;;;;;0.00;0.00;;;;;;;7.05;89.63;101419.44;6195628;23;20539;-77
2023/02/20 01:36:00;;;;;;;0.00;0.00;;;;;;;7.05;90.30;101414.00;6223168;23;20571;-77
2023/02/20 01:38:26;;;;;;;0.00;0.00;;;;;;;7.02;89.52;101409.00;6194076;23;20012;-77
2023/02/20 01:40:57;;;;;;;0.00;0.00;;;;;;;7.04;89.90;101406.91;6196511;23;20004;-77
2023/02/20 01:43:22;;;;;;;0.08;0.08;;;;;;;7.04;89.65;101412.34;6195425;23;20028;-77
2023/02/20 01:45:48;;;;;;;0.00;0.00;;;;;;;7.01;89.76;101417.38;6196353;23;20057;-77
2023/02/20 01:48:24;;;;;;;0.00;0.00;;;;;;;6.96;90.57;101409.88;6195480;23;20015;-77
2023/02/20 01:50:57;;;;;;;0.00;0.00;;;;;;;7.01;90.53;101431.81;6194130;23;20008;-79
2023/02/20 01:53:25;;;;;;;0.00;0.00;;;;;;;6.95;89.57;101417.22;6195393;23;20010;-77
2023/02/20 01:55:55;;;;;;;0.00;0.00;;;;;;;6.93;90.06;101413.84;6196206;23;20012;-77
2023/02/20 01:58:27;;;;;;;0.00;0.00;;;;;;;6.95;90.65;101413.63;6197683;23;19992;-76
2023/02/20 02:00:54;;;;;;;0.00;0.00;;;;;;;6.93;89.75;101400.25;6222488;23;19991;-78
2023/02/20 02:03:27;;;;;;;0.00;0.00;;;;;;;6.93;90.09;101404.88;6196079;23;20431;-79
2023/02/20 02:05:59;;;;;;;0.00;0.00;;;;;;;6.95;90.23;101413.63;6196355;23;20000;-77
2023/02/20 02:08:26;;;;;;;0.00;0.00;;;;;;;6.96;89.79;101415.31;6193897;23;20001;-77
2023/02/20 02:11:00;;;;;;;0.08;0.08;;;;;;;6.96;90.26;101418.03;6221368;23;20004;-76
2023/02/20 02:13:26;;;;;;;0.10;0.10;;;;;;;6.97;90.42;101417.00;6194763;23;20000;-78
2023/02/20 02:15:59;;;;;;;0.00;0.00;;;;;;;6.95;90.95;101419.06;6222210;23;20379;-77
2023/02/20 02:18:55;;;;;;;0.00;0.00;;;;;;;6.97;90.97;101417.81;6193663;23;20004;-76
2023/02/20 02:21:51;;;;;;;0.00;0.00;;;;;;;6.95;90.69;101409.06;6195593;23;20013;-76
2023/02/20 02:24:29;;;;;;;0.00;0.00;;;;;;;6.96;91.08;101416.13;6193989;23;20060;-76
2023/02/20 02:27:29;;;;;;;0.00;0.00;;;;;;;6.94;90.54;101406.56;6221766;23;20004;-77
2023/02/20 02:30:16;;;;;;;0.00;0.00;;;;;;;6.90;91.75;101405.31;6117494;23;20004;-77
2023/02/20 02:33:02;;;;;;;0.00;0.00;;;;;;;6.86;92.53;101404.06;6220583;23;20001;-76
2023/02/20 02:35:58;;;;;;;0.05;0.05;;;;;;;6.83;92.10;101389.03;6220814;23;20004;-77
2023/02/20 02:38:48;;;;;;;0.00;0.00;;;;;;;6.82;92.30;101390.91;6194211;23;20009;-77
2023/02/20 02:41:32;;;;;;;0.10;0.10;;;;;;;6.81;92.22;101385.69;6194784;23;20415;-77
2023/02/20 02:44:20;;;;;;;0.00;0.00;;;;;;;6.85;92.38;101386.94;6194942;23;20032;-76
2023/02/20 02:46:54;;;;;;;0.00;0.00;;;;;;;6.84;92.45;101389.88;6221252;23;19997;-78
2023/02/20 02:49:27;;;;;;;0.00;0.00;;;;;;;6.85;93.15;101391.53;6227502;23;20014;-77
2023/02/20 02:51:55;;;;;;;0.00;0.00;;;;;;;6.86;92.63;101387.75;6221063;23;20051;-77
2023/02/20 02:54:27;;;;;;;0.00;0.00;;;;;;;6.87;93.04;101394.88;6220556;23;20305;-77
2023/02/20 02:57:13;;;;;;;0.00;0.00;;;;;;;6.89;92.78;101384.59;6219059;23;20005;-77
2023/02/20 02:59:41;;;;;;;0.00;0.00;;;;;;;6.87;93.13;101381.28;6193995;23;20024;-77
2023/02/20 03:02:10;;;;;;;0.00;0.00;;;;;;;6.85;93.09;101381.50;6196564;23;20012;-77
2023/02/20 03:04:37;;;;;;;0.00;0.00;;;;;;;6.88;94.00;101380.22;6195681;23;20027;-77
2023/02/20 03:07:10;;;;;;;0.00;0.00;;;;;;;6.88;94.08;101374.78;6193640;23;20040;-77
2023/02/20 03:09:46;;;;;;;0.10;0.10;;;;;;;6.85;93.60;101383.38;6194787;23;20012;-77
2023/02/20 03:12:12;;;;;;;0.10;0.10;;;;;;;6.82;94.09;101377.31;6194811;23;20084;-76
2023/02/20 03:18:19;;;;;;;0.00;0.00;;;;;;;6.78;94.65;101386.97;6222505;23;20015;-77
2023/02/20 03:20:53;;;;;;;0.00;0.00;;;;;;;6.72;94.23;101376.13;6222792;23;20005;-77
2023/02/20 03:23:26;;;;;;;0.00;0.00;;;;;;;6.78;94.77;101384.25;6196106;23;20001;-78
2023/02/20 03:26:01;;;;;;;0.00;0.00;;;;;;;6.81;94.85;101386.53;6220532;23;20016;-77
2023/02/20 03:28:45;;;;;;;0.00;0.00;;;;;;;6.82;94.72;101366.44;6193154;23;20011;-78
2023/02/20 03:31:13;;;;;;;0.00;0.00;;;;;;;6.88;94.89;101374.78;6221859;23;20004;-78
2023/02/20 03:44:58;;;;;;;0.00;0.00;;;;;;;6.97;94.58;101370.75;6194573;23;20024;-78
2023/02/20 03:47:27;;;;;;;0.00;0.00;;;;;;;7.02;94.48;101365.47;6163383;23;20005;-78
2023/02/20 03:49:54;;;;;;;0.00;0.00;;;;;;;7.02;93.81;101359.22;6140381;23;20009;-78
2023/02/20 03:52:26;;;;;;;0.00;0.00;;;;;;;7.05;94.30;101359.59;6190918;23;20002;-76
2023/02/20 03:54:52;;;;;;;0.00;0.00;;;;;;;7.04;93.85;101352.50;6163003;23;20097;-77
2023/02/20 03:57:22;;;;;;;0.00;0.00;;;;;;;7.04;94.25;101363.38;6191621;23;20004;-78
2023/02/20 03:59:54;;;;;;;0.00;0.00;;;;;;;7.04;94.25;101360.66;6168465;23;20055;-78
2023/02/20 04:02:32;;;;;;;0.00;0.00;;;;;;;7.04;94.67;101368.84;6176179;23;20005;-77
2023/02/20 04:05:05;;;;;;;0.00;0.00;;;;;;;7.02;94.94;101365.47;6175919;23;20203;-77
2023/02/20 04:07:52;;;;;;;0.00;0.00;;;;;;;6.95;94.44;101365.53;6198619;23;20025;-78
2023/02/20 04:10:23;;;;;;;0.00;0.00;;;;;;;6.96;95.31;101369.09;6194208;23;20008;-80
2023/02/20 04:12:51;;;;;;;0.00;0.00;;;;;;;6.92;95.47;101365.13;6193718;23;19981;-78
2023/02/20 04:15:20;;;;;;;0.00;0.00;;;;;;;6.91;95.51;101363.47;6168295;23;20095;-78
2023/02/20 04:18:03;;;;;;;0.00;0.00;;;;;;;6.87;95.62;101352.19;6167925;23;20108;-77
2023/02/20 04:20:29;;;;;;;0.10;0.10;;;;;;;6.88;96.18;101369.31;6167423;23;20027;-78
2023/02/20 04:23:03;;;;;;;0.00;0.00;;;;;;;6.88;96.02;101361.16;6192899;23;20085;-78
2023/02/20 04:25:37;;;;;;;0.00;0.00;;;;;;;6.87;95.99;101357.63;6166537;23;20017;-78
2023/02/20 04:28:17;;;;;;;0.10;0.10;;;;;;;6.85;96.77;101350.72;6193330;23;19997;-79
2023/02/20 04:30:43;;;;;;;0.00;0.00;;;;;;;6.88;95.67;101347.56;6167029;23;20065;-78
2023/02/20 04:33:13;;;;;;;0.00;0.00;;;;;;;6.80;96.15;101345.97;6142469;23;20009;-78
2023/02/20 04:35:39;;;;;;;0.00;0.00;;;;;;;6.78;95.70;101346.19;6166276;23;20005;-78
2023/02/20 04:38:05;;;;;;;0.00;0.00;;;;;;;6.76;96.37;101353.72;6164759;23;20007;-78
2023/02/20 04:40:30;;;;;;;0.00;0.00;;;;;;;6.71;96.45;101353.53;6141216;23;20104;-78
2023/02/20 04:42:56;;;;;;;0.00;0.00;;;;;;;6.68;96.93;101343.09;6140047;23;20058;-77
2023/02/20 04:45:21;;;;;;;0.00;0.00;;;;;;;6.69;96.30;101350.22;6116329;23;20077;-78
2023/02/20 04:47:47;;;;;;;0.00;0.00;;;;;;;6.66;96.85;101350.66;6142492;23;20052;-78
2023/02/20 04:50:30;;;;;;;0.00;0.00;;;;;;;6.68;96.87;101353.16;6141086;23;20443;-78
2023/02/20 04:52:56;;;;;;;0.00;0.00;;;;;;;6.69;97.25;101355.66;6164897;23;20490;-77
2023/02/20 04:55:22;;;;;;;0.00;0.00;;;;;;;6.72;96.79;101355.22;6165404;23;20005;-76
2023/02/20 04:57:48;;;;;;;0.03;0.03;;;;;;;6.73;96.86;101358.75;6190996;23;20320;-78
2023/02/20 05:00:17;;;;;;;0.10;0.10;;;;;;;6.74;97.35;101358.53;6167011;23;20008;-78
2023/02/20 05:02:43;;;;;;;0.00;0.00;;;;;;;6.80;97.08;101363.13;6166155;23;20234;-78
2023/02/20 05:05:29;;;;;;;0.10;0.10;;;;;;;6.81;96.64;101353.91;6166324;23;19997;-79
2023/02/20 05:07:57;;;;;;;0.00;0.00;;;;;;;6.88;97.10;101370.19;6164234;23;20024;-77
2023/02/20 05:10:25;;;;;;;0.00;0.00;;;;;;;6.89;96.02;101366.41;6166337;23;20001;-78
2023/02/20 05:12:51;;;;;;;0.00;0.00;;;;;;;6.92;96.21;101373.28;6142437;23;20009;-79
2023/02/20 05:15:18;;;;;;;0.00;0.00;;;;;;;6.89;96.42;101373.72;6190876;23;20645;-78
2023/02/20 05:17:43;;;;;;;0.00;0.00;;;;;;;6.89;96.35;101373.72;6165426;23;20325;-78
2023/02/20 05:20:10;;;;;;;0.00;0.00;;;;;;;6.87;96.45;101367.69;6165844;23;20005;-78
2023/02/20 05:22:35;;;;;;;0.00;0.00;;;;;;;6.85;96.03;101364.34;6142010;23;19993;-80
2023/02/20 05:25:01;;;;;;;0.00;0.00;;;;;;;6.78;96.73;101354.34;6191639;23;20571;-78
2023/02/20 05:27:27;;;;;;;0.00;0.00;;;;;;;6.67;97.59;101352.31;6166312;23;20005;-78
2023/02/20 05:29:57;;;;;;;0.00;0.00;;;;;;;6.65;97.87;101359.84;6139019;23;20020;-79
2023/02/20 05:32:26;;;;;;;0.00;0.00;;;;;;;6.62;98.58;101361.09;6166530;23;20001;-78
2023/02/20 05:34:52;;;;;;;0.10;0.10;;;;;;;6.61;99.43;101358.59;6166352;23;20005;-78
2023/02/20 05:37:22;;;;;;;0.00;0.00;;;;;;;6.56;99.37;101344.84;6165439;23;20015;-77
2023/02/20 05:39:48;;;;;;;0.00;0.00;;;;;;;6.54;99.26;101352.38;6164424;23;20001;-78
2023/02/20 05:42:14;;;;;;;0.00;0.00;;;;;;;6.51;100.00;101347.38;6191837;23;19997;-77
2023/02/20 05:44:40;;;;;;;0.00;0.00;;;;;;;6.50;100.00;101353.84;6185821;23;20024;-76
2023/02/20 05:47:06;;;;;;;0.00;0.00;;;;;;;6.46;100.00;101350.75;6221056;23;19995;-80
2023/02/20 05:49:36;;;;;;;0.00;0.00;;;;;;;6.41;100.00;101347.81;6145267;23;20008;-78
2023/02/20 05:52:11;;;;;;;0.00;0.00;;;;;;;6.28;100.00;101333.25;6196788;23;20023;-79
2023/02/20 05:54:43;;;;;;;0.00;0.00;;;;;;;6.37;100.00;101342.00;6196354;23;20005;-77
2023/02/20 05:57:21;;;;;;;;;;;;;;;;;;;;;
2023/02/20 05:59:52;;;;;;;0.00;0.00;;;;;;;6.29;100.00;101350.38;6198086;23;20368;-78
2023/02/20 06:02:21;;;;;;;0.00;0.00;;;;;;;6.21;100.00;101337.06;6171657;23;20028;-78
2023/02/20 06:04:46;;;;;;;0.00;0.00;;;;;;;6.27;100.00;101347.06;6196701;23;20020;-78
2023/02/20 06:07:12;;;;;;;0.00;0.00;;;;;;;6.19;100.00;101339.13;6193977;23;20005;-78
2023/02/20 06:09:41;;;;;;;0.00;0.00;;;;;;;6.23;100.00;101337.66;6146894;23;20375;-77
2023/02/20 06:12:06;;;;;;;0.00;0.00;;;;;;;6.23;100.00;101345.81;6171591;23;20008;-78
2023/02/20 06:14:35;;;;;;;0.00;0.00;;;;;;;6.19;100.00;101339.13;6197580;23;20024;-77
2023/02/20 06:17:03;;;;;;;0.00;0.00;;;;;;;6.29;100.00;101350.38;6195682;23;20072;-77
2023/02/20 06:19:29;;;;;;;0.00;0.00;;;;;;;6.17;100.00;101335.81;6171130;23;20040;-77
2023/02/20 06:21:57;;;;;;;0.00;0.00;;;;;;;6.32;100.00;101360.81;6196171;23;20571;-78
2023/02/20 06:24:23;;;;;;;0.00;0.00;;;;;;;6.20;100.00;101338.09;6148210;23;20011;-77
2023/02/20 06:26:52;;;;;;;0.00;0.00;;;;;;;6.16;100.00;101339.56;6195719;23;20008;-78
2023/02/20 06:29:20;;;;;;;0.00;0.00;;;;;;;6.25;100.00;101343.72;6170470;23;20009;-77
2023/02/20 06:31:58;;;;;;;0.00;0.00;;;;;;;6.23;100.00;101335.78;6195314;23;20008;-79
2023/02/20 06:34:32;;;;;;;0.00;0.00;;;;;;;6.27;100.00;101342.44;6194969;23;20012;-77
2023/02/20 06:37:06;;;;;;;0.00;0.00;;;;;;;6.31;100.00;101334.72;6199823;23;20058;-76
2023/02/20 06:39:34;;;;;;;0.00;0.00;;;;;;;6.05;100.00;101276.72;6205289;23;20004;-76
2023/02/20 06:42:00;;;;;;;0.00;0.00;;;;;;;6.30;100.00;101322.19;6236314;23;19993;-75
2023/02/20 06:44:26;;;;;;;0.00;0.00;;;;;;;6.30;100.00;101311.31;6163690;23;20086;-77
2023/02/20 06:46:52;;;;;;;0.00;0.00;;;;;;;6.11;100.00;101296.78;6172372;23;20016;-78
2023/02/20 06:49:18;;;;;;;0.00;0.00;;;;;;;6.27;100.00;101319.91;6171017;23;20601;-78
2023/02/20 06:51:49;;;;;;;0.08;0.08;;;;;;;6.23;100.00;101314.03;6170682;23;20016;-80
2023/02/20 06:54:20;;;;;;;0.00;0.00;;;;;;;6.20;100.00;101319.09;6170398;23;20099;-78
2023/02/20 06:56:46;;;;;;;0.00;0.00;;;;;;;6.13;100.00;101301.97;6221147;23;20004;-78
2023/02/20 06:59:13;;;;;;;0.00;0.00;;;;;;;6.09;100.00;101297.00;6222278;23;19996;-77
2023/02/20 07:01:41;;;;;;;0.00;0.00;;;;;;;5.95;100.00;101268.19;6196717;23;20141;-77
2023/02/20 07:04:14;;;;;;;0.00;0.00;;;;;;;6.22;100.00;101316.97;6194268;23;20020;-76
2023/02/20 07:06:42;;;;;;;0.00;0.00;;;;;;;6.23;100.00;101313.22;6194716;23;20020;-77
2023/02/20 07:09:18;;;;;;;0.00;0.00;;;;;;;6.13;100.00;101291.13;6221574;23;19989;-77
2023/02/20 07:11:49;;;;;;;0.10;0.10;;;;;;;6.15;100.00;101303.44;6170041;23;20013;-77
2023/02/20 07:14:15;;;;;;;0.00;0.00;;;;;;;6.18;100.00;101305.72;6193648;23;20315;-77
2023/02/20 07:16:40;;;;;;;0.00;0.00;;;;;;;6.27;100.00;101315.28;6191634;23;20084;-77
2023/02/20 07:19:08;;;;;;;0.00;0.00;;;;;;;6.41;100.00;101326.94;6194818;23;20040;-79
2023/02/20 07:21:34;;;;;;;0.00;0.00;;;;;;;6.41;100.00;101315.22;6195429;23;20055;-79
2023/02/20 07:23:59;;;;;;;0.10;0.10;;;;;;;6.56;100.00;101333.97;6146984;23;20504;-77
2023/02/20 07:26:27;;;;;;;0.00;0.00;;;;;;;6.45;100.00;101317.31;6148285;23;20005;-78
2023/02/20 07:28:57;;;;;;;0.00;0.00;;;;;;;6.54;100.00;101331.47;6195400;23;20012;-78
2023/02/20 07:31:23;;;;;;;0.00;0.00;;;;;;;6.54;100.00;101317.91;6196160;23;20009;-79
2023/02/20 07:33:54;;;;;;;0.00;0.00;;;;;;;6.48;100.00;101316.03;6196804;23;20040;-77
2023/02/20 07:36:22;;;;;;;0.00;0.00;;;;;;;6.64;100.00;101331.84;6197160;23;20020;-78
2023/02/20 07:38:55;;;;;;;0.00;0.00;;;;;;;6.73;100.00;101328.84;6223459;23;20000;-79
2023/02/20 07:41:21;;;;;;;0.00;0.00;;;;;;;6.75;100.00;101338.47;6195046;23;20011;-75
2023/02/20 07:43:46;;;;;;;0.00;0.00;;;;;;;6.74;100.00;101336.78;6215117;23;20450;-75
2023/02/20 07:46:12;;;;;;;0.00;0.00;;;;;;;6.73;100.00;101327.00;6191095;23;20005;-77
2023/02/20 07:48:37;;;;;;;0.00;0.00;;;;;;;6.88;100.00;101342.13;6141778;23;20324;-76
2023/02/20 07:51:03;;;;;;;0.00;0.00;;;;;;;6.97;100.00;101349.00;6167126;23;20083;-77
2023/02/20 07:53:28;;;;;;;0.00;0.00;;;;;;;6.88;100.00;101333.97;6143084;23;20009;-78
2023/02/20 07:56:05;;;;;;;0.05;0.05;;;;;;;6.93;100.00;101335.00;6143499;23;20005;-78
2023/02/20 07:58:33;;;;;;;0.00;0.00;;;;;;;6.79;100.00;101307.06;6167592;23;20059;-78
2023/02/20 08:00:59;;;;;;;0.00;0.00;;;;;;;6.98;100.00;101342.53;6180120;23;20008;-79
2023/02/20 08:03:24;;;;;;;0.00;0.00;;;;;;;7.01;100.00;101352.09;6155942;23;20001;-79
2023/02/20 08:06:01;;;;;;;0.00;0.00;;;;;;;7.00;100.00;101351.28;6151425;23;20013;-79
2023/02/20 08:08:30;;;;;;;0.00;0.00;;;;;;;7.11;100.00;101347.88;6197309;23;20008;-78
2023/02/20 08:13:45;;;;;;;0.00;0.00;;;;;;;7.12;100.00;101338.63;6174968;23;20065;-79
2023/02/20 08:16:11;;;;;;;0.00;0.00;;;;;;;7.07;100.00;101327.59;6166278;23;20079;-78
2023/02/20 08:18:43;;;;;;;0.00;0.00;;;;;;;7.23;100.00;101349.84;6169885;23;20086;-78
2023/02/20 08:21:08;;;;;;;0.00;0.00;;;;;;;7.26;100.00;101360.31;6144566;23;20420;-79
2023/02/20 08:23:44;;;;;;;;;;;;;;;;;;;;;
2023/02/20 08:26:33;;;;;;;0.00;0.00;;;;;;;7.19;100.00;101362.25;6196622;23;20020;-79
2023/02/20 08:28:55;;;;;;;0.00;0.00;;;;;;;7.08;100.00;101342.88;6171595;23;20001;-77
2023/02/20 08:31:57;;;;;;;;;;;;;;;;;;;;;
2023/02/20 08:34:38;;;;;;;0.00;0.00;;;;;;;7.23;100.00;101363.44;6185257;23;20005;-81
2023/02/20 08:37:33;;;;;;;0.00;0.00;;;;;;;7.21;100.00;101351.97;6023173;23;20007;-78
2023/02/20 08:40:30;;;;;;;0.00;0.00;;;;;;;7.32;100.00;101370.31;6164075;23;20498;-78
2023/02/20 08:43:12;;;;;;;0.00;0.00;;;;;;;7.23;100.00;101338.97;6188049;23;20001;-77
2023/02/20 08:45:54;;;;;;;0.00;0.00;;;;;;;7.46;100.00;101374.59;6165760;23;20017;-76
2023/02/20 08:48:59;;;;;;;;;;;;;;;;;;;;;
2023/02/20 08:51:37;;;;;;;;;;;;;;;;;;;;;
2023/02/20 08:54:25;;;;;;;;;;;;;;;;;;;;;
2023/02/20 08:59:57;;;;;;;0.00;0.00;;;;;;;7.94;100.00;101374.97;6200142;23;20036;-78
2023/02/20 09:02:24;;;;;;;0.00;0.00;;;;;;;8.09;100.00;101364.56;6194763;23;20007;-77
2023/02/20 09:04:52;;;;;;;0.00;0.00;;;;;;;8.19;100.00;101351.25;6193756;23;20020;-78
2023/02/20 09:07:18;;;;;;;0.00;0.00;;;;;;;8.45;100.00;101352.00;6212933;23;20024;-77
2023/02/20 09:09:43;;;;;;;0.00;0.00;;;;;;;8.77;100.00;101370.88;6186864;23;20008;-77
2023/02/20 09:12:09;;;;;;;0.00;0.00;;;;;;;8.82;98.16;101357.41;6193589;23;20071;-77
2023/02/20 09:14:35;;;;;;;0.00;0.00;;;;;;;8.85;97.48;101356.94;6192780;23;20039;-77
2023/02/20 09:17:00;;;;;;;0.00;0.00;;;;;;;9.00;96.95;101363.88;6162491;23;20456;-78
2023/02/20 09:19:25;;;;;;;0.00;0.00;;;;;;;9.17;96.26;101367.59;6183784;23;20004;-77
2023/02/20 09:21:56;;;;;;;0.00;0.00;;;;;;;9.29;95.76;101364.03;6188531;23;20009;-77
2023/02/20 09:24:22;;;;;;;0.10;0.10;;;;;;;9.40;94.69;101358.63;6189590;23;20015;-77
2023/02/20 09:26:50;;;;;;;0.00;0.00;;;;;;;9.51;94.51;101354.22;6191371;23;20004;-77
2023/02/20 09:29:15;;;;;;;0.00;0.00;;;;;;;9.60;92.79;101361.00;6187304;23;20004;-77
2023/02/20 09:31:43;;;;;;;0.00;0.00;;;;;;;9.56;92.05;101359.81;6187093;23;20028;-77
2023/02/20 09:34:09;;;;;;;0.00;0.00;;;;;;;9.57;92.56;101369.66;6166490;23;20032;-77
2023/02/20 09:36:34;;;;;;;0.00;0.00;;;;;;;9.59;92.28;101351.16;6162975;23;20735;-77
2023/02/20 09:39:02;;;;;;;0.00;0.00;;;;;;;9.70;91.33;101367.78;6163093;23;20530;-77
2023/02/20 09:41:58;;;;;;;0.00;0.00;;;;;;;9.87;90.70;101376.94;6189172;23;20111;-77
2023/02/20 09:44:41;;;;;;;0.00;0.00;;;;;;;10.01;90.02;101357.56;6158730;23;20039;-77
2023/02/20 09:47:43;;;;;;;0.00;0.00;;;;;;;10.26;89.71;101374.47;6221490;23;20035;-81
2023/02/20 09:50:17;;;;;;;0.00;0.00;;;;;;;10.31;88.79;101355.47;6192251;23;20092;-79
2023/02/20 09:52:57;;;;;;;0.00;0.00;;;;;;;10.43;87.87;101365.59;6192220;23;19997;-79
2023/02/20 09:55:27;;;;;;;0.00;0.00;;;;;;;10.52;87.04;101357.84;6221526;23;20007;-79
2023/02/20 09:57:55;;;;;;;0.00;0.00;;;;;;;10.58;86.01;101357.66;6194822;23;20001;-78
2023/02/20 10:00:32;;;;;;;0.00;0.00;;;;;;;10.72;85.39;101379.25;6195010;23;20110;-78
2023/02/20 10:03:18;;;;;;;0.00;0.00;;;;;;;10.64;85.21;101373.13;6195520;23;20031;-78
2023/02/20 10:05:44;;;;;;;0.00;0.00;;;;;;;10.70;85.62;101359.53;6191311;23;20055;-78
2023/02/20 10:08:14;;;;;;;0.00;0.00;;;;;;;10.98;84.66;101354.06;6145262;23;20111;-79
2023/02/20 10:10:40;;;;;;;0.00;0.00;;;;;;;11.06;83.47;101361.03;6194187;23;20008;-77
2023/02/20 10:13:46;;;;;;;0.00;0.00;;;;;;;11.21;82.54;101355.00;6197055;23;20008;-80
2023/02/20 10:16:28;;;;;;;;;;;;;;;;;;;;;
2023/02/20 10:19:09;;;;;;;0.00;0.00;;;;;;;11.30;83.34;101369.94;6222587;23;20020;-79
2023/02/20 10:21:53;;;;;;;0.00;0.00;;;;;;;11.67;80.80;101369.44;6192726;23;20005;-77
2023/02/20 10:24:55;;;;;;;0.00;0.00;;;;;;;11.56;80.08;101356.66;6191780;23;20433;-76
2023/02/20 10:27:49;;;;;;;0.00;0.00;;;;;;;11.33;80.68;101350.28;6201821;23;20005;-78
2023/02/20 10:30:22;;;;;;;0.00;0.00;;;;;;;11.47;81.36;101358.16;6222557;23;20080;-79
2023/02/20 10:32:56;;;;;;;0.00;0.00;;;;;;;11.47;80.30;101352.69;6198672;23;20005;-78
2023/02/20 10:35:46;;;;;;;0.00;0.00;;;;;;;11.72;80.98;101356.91;6198000;23;20543;-78
2023/02/20 10:38:14;;;;;;;0.00;0.00;;;;;;;11.99;79.00;101348.84;6195633;23;20013;-78
2023/02/20 10:40:51;;;;;;;0.00;0.00;;;;;;;12.03;77.76;101356.31;6203755;23;20009;-79
2023/02/20 10:43:45;;;;;;;0.00;0.00;;;;;;;11.84;77.41;101357.63;6203709;23;20004;-78
2023/02/20 10:46:38;;;;;;;;;;;;;;;;;;;;;
2023/02/20 10:49:28;;;;;;;0.00;0.00;;;;;;;11.56;77.91;101317.50;6222748;23;20044;-79
2023/02/20 10:51:58;;;;;;;0.00;0.00;;;;;;;11.60;78.23;101335.91;6194185;23;20067;-80
2023/02/20 10:55:03;;;;;;;0.00;0.00;;;;;;;11.65;77.39;101325.03;6190310;23;20040;-80
2023/02/20 10:57:40;;;;;;;0.00;0.00;;;;;;;11.91;77.73;101324.56;6177743;23;20012;-79
2023/02/20 11:00:09;;;;;;;0.00;0.00;;;;;;;12.05;76.61;101351.38;6195704;23;19993;-80
2023/02/20 11:02:44;;;;;;;0.00;0.00;;;;;;;12.05;76.24;101343.16;6195676;23;19985;-79
2023/02/20 11:05:17;;;;;;;0.00;0.00;;;;;;;11.89;75.58;101330.31;6221491;23;19989;-78
2023/02/20 11:07:46;;;;;;;0.10;0.10;;;;;;;11.96;76.43;101333.72;6224930;23;20001;-80
2023/02/20 11:10:26;;;;;;;0.10;0.10;;;;;;;12.36;76.40;101343.56;6181740;23;20016;-81
2023/02/20 11:12:59;;;;;;;0.00;0.00;;;;;;;12.51;74.88;101342.09;6219172;23;20007;-78
2023/02/20 11:15:29;;;;;;;0.00;0.00;;;;;;;12.33;74.89;101313.06;6196415;23;20065;-79
2023/02/20 11:17:58;;;;;;;0.00;0.00;;;;;;;12.39;75.14;101331.25;6194869;23;20062;-79
2023/02/20 11:20:53;;;;;;;0.00;0.00;;;;;;;12.49;74.95;101330.53;6220866;23;20051;-80
2023/02/20 11:23:59;;;;;;;0.00;0.00;;;;;;;12.44;74.70;101336.81;6195642;23;20112;-77
2023/02/20 11:26:34;;;;;;;0.00;0.00;;;;;;;12.24;74.00;101329.16;6080895;23;20307;-77
2023/02/20 11:29:05;;;;;;;0.00;0.00;;;;;;;12.28;74.31;101335.78;6077616;23;20013;-76
2023/02/20 11:31:32;;;;;;;0.00;0.00;;;;;;;12.21;74.97;101329.66;6128811;23;20339;-77
2023/02/20 11:34:13;;;;;;;0.00;0.00;;;;;;;12.20;74.70;101322.50;6193199;23;20012;-80
2023/02/20 11:36:44;;;;;;;0.00;0.00;;;;;;;12.16;75.08;101315.88;6198620;23;20094;-81
2023/02/20 11:39:29;;;;;;;0.00;0.00;;;;;;;12.12;75.18;101314.72;6196425;23;19997;-78
2023/02/20 11:42:11;;;;;;;0.00;0.00;;;;;;;12.36;74.89;101324.34;6172920;23;20012;-79
2023/02/20 11:44:37;;;;;;;0.00;0.00;;;;;;;12.48;73.95;101309.69;6194246;23;20016;-79
2023/02/20 11:47:10;;;;;;;0.00;0.00;;;;;;;12.53;72.75;101321.53;6196704;23;20028;-80
2023/02/20 11:49:36;;;;;;;0.00;0.00;;;;;;;12.40;73.39;101327.44;6197836;23;20047;-79
2023/02/20 11:52:08;;;;;;;0.00;0.00;;;;;;;12.49;73.41;101322.31;6197177;23;20004;-79
2023/02/20 11:54:34;;;;;;;0.00;0.00;;;;;;;12.50;73.87;101326.69;6225638;23;20056;-79
2023/02/20 11:57:05;;;;;;;0.00;0.00;;;;;;;12.48;73.98;101324.22;6197716;23;20343;-81
2023/02/20 11:59:49;;;;;;;0.00;0.00;;;;;;;12.48;73.23;101306.94;6198298;23;20087;-79
2023/02/20 12:02:23;;;;;;;0.00;0.00;;;;;;;12.58;73.55;101301.56;6196187;23;20011;-80
2023/02/20 12:05:18;;;;;;;;;;;;;;;12.82;73.17;101299.34;6192410;23;20040;-79
2023/02/20 12:08:05;;;;;;;;;;;;;;;;;;;;;
2023/02/20 12:10:45;;;;;;;0.00;0.00;;;;;;;12.75;71.29;101296.78;6211738;23;20028;-80
2023/02/20 12:13:16;;;;;;;0.00;0.00;;;;;;;12.81;72.01;101296.84;6193285;23;20062;-80
2023/02/20 12:15:46;;;;;;;0.00;0.00;;;;;;;12.79;72.07;101283.41;6220757;23;19997;-78
2023/02/20 12:18:32;;;;;;;0.08;0.08;;;;;;;12.90;71.61;101276.88;6194799;23;20328;-80
2023/02/20 12:21:08;;;;;;;0.00;0.00;;;;;;;13.08;71.42;101280.34;6192872;23;20009;-79
2023/02/20 12:23:59;;;;;;;0.00;0.00;;;;;;;13.31;70.39;101270.91;6192225;23;20005;-80
2023/02/20 12:26:29;;;;;;;0.00;0.00;;;;;;;13.29;69.84;101264.84;6211638;23;20016;-77
2023/02/20 12:28:58;;;;;;;0.00;0.00;;;;;;;14.02;69.13;101266.94;6191421;23;19993;-78
2023/02/20 12:31:32;;;;;;;0.00;0.00;;;;;;;14.44;65.12;101281.66;6221059;23;20315;-78
2023/02/20 12:34:28;;;;;;;0.00;0.00;;;;;;;14.19;65.56;101257.66;6192978;23;20005;-78
2023/02/20 12:41:04;;;;;;;;;;;;;;;;;;;;;
2023/02/20 12:43:46;;;;;;;;;;;;;;;;;;;;;
2023/02/20 12:46:28;;;;;;;0.00;0.00;;;;;;;15.73;59.81;101252.19;6223378;23;20397;-78
2023/02/20 12:49:42;;;;;;;0.00;0.00;;;;;;;15.02;61.74;101253.97;6196660;23;20008;-81